Time;durP1;ratioP1;P1;durP2;ratioP2;P2;SDS_P1;SDS_P2;PMS_P1;PMS_P2;Temp;Humidity;BMP_temperature;BMP_pressure;BME280_temperature;BME280_humidity;BME280_pressure;Samples;Min_cycle;Max_cycle;Signal;HPM_P1;HPM_P2
2024/01/14 00:01:21;;;;;;;13.82;2.75;;;4.60;91.70;;;;;;5005787;28;20034;-85
2024/01/14 00:03:46;;;;;;;6.95;1.45;;;4.70;91.80;;;;;;5020207;28;20038;-85
2024/01/14 00:06:12;;;;;;;9.90;1.63;;;4.60;91.70;;;;;;5018572;28;20116;-85
2024/01/14 00:08:37;;;;;;;11.27;1.58;;;4.60;91.70;;;;;;5025222;28;20124;-85
2024/01/14 00:11:04;;;;;;;10.35;1.60;;;4.60;91.70;;;;;;5003984;28;20034;-85
2024/01/14 00:13:30;;;;;;;8.80;1.40;;;4.60;91.70;;;;;;5002665;28;20084;-85
2024/01/14 00:15:55;;;;;;;6.70;1.30;;;4.60;91.70;;;;;;5011807;28;20041;-85
2024/01/14 00:18:21;;;;;;;6.47;1.45;;;4.60;91.70;;;;;;5004340;28;20038;-85
2024/01/14 00:20:46;;;;;;;7.10;1.20;;;4.60;91.70;;;;;;5021804;28;20087;-85
2024/01/14 00:23:12;;;;;;;9.13;1.77;;;4.60;91.70;;;;;;5002732;28;20034;-85
2024/01/14 00:25:37;;;;;;;8.57;1.42;;;5.10;91.80;;;;;;5019527;28;20405;-85
2024/01/14 00:28:03;;;;;;;9.40;1.42;;;4.60;91.70;;;;;;5002486;28;20083;-85
2024/01/14 00:30:29;;;;;;;9.82;2.35;;;4.60;91.70;;;;;;5020528;28;20044;-85
2024/01/14 00:32:55;;;;;;;9.73;1.50;;;4.60;91.70;;;;;;5004743;28;20045;-85
2024/01/14 00:35:20;;;;;;;8.80;1.50;;;4.60;91.70;;;;;;5019640;28;20029;-85
2024/01/14 00:37:47;;;;;;;6.90;0.90;;;4.60;91.70;;;;;;5002846;28;20080;-85
2024/01/14 00:40:13;;;;;;;8.77;1.48;;;4.60;91.70;;;;;;5002560;28;20029;-85
2024/01/14 00:42:39;;;;;;;10.32;1.40;;;4.60;91.70;;;;;;5001618;28;20042;-85
2024/01/14 00:45:05;;;;;;;6.13;1.20;;;4.50;91.70;;;;;;5003269;28;20150;-85
2024/01/14 00:47:30;;;;;;;7.50;1.05;;;4.50;91.70;;;;;;5003718;28;20154;-85
2024/01/14 00:49:59;;;;;;;4.63;0.90;;;4.50;91.70;;;;;;5004880;28;20055;-85
2024/01/14 00:52:25;;;;;;;6.20;1.05;;;4.50;91.70;;;;;;5002178;28;20044;-85
2024/01/14 00:54:50;;;;;;;9.35;1.40;;;4.50;91.70;;;;;;5018612;28;20038;-85
2024/01/14 00:57:16;;;;;;;8.23;1.20;;;4.50;91.70;;;;;;4997177;28;20480;-85
2024/01/14 00:59:41;;;;;;;11.60;2.20;;;4.60;91.70;;;;;;5021200;28;20042;-85
2024/01/14 01:02:07;;;;;;;7.93;1.52;;;4.50;91.70;;;;;;5004004;28;20440;-85
2024/01/14 01:04:33;;;;;;;11.23;1.70;;;4.50;91.70;;;;;;5003870;28;20469;-85
2024/01/14 01:06:58;;;;;;;10.35;1.33;;;4.50;91.70;;;;;;5018813;28;20036;-85
2024/01/14 01:09:24;;;;;;;6.25;1.20;;;4.60;91.80;;;;;;5013145;28;20046;-85
2024/01/14 01:11:50;;;;;;;8.45;1.13;;;4.60;91.80;;;;;;5023538;28;20073;-85
2024/01/14 01:14:15;;;;;;;4.47;0.90;;;4.60;91.80;;;;;;5015693;28;20476;-85
2024/01/14 01:16:41;;;;;;;10.82;1.35;;;4.60;91.80;;;;;;5000894;28;20042;-85
2024/01/14 01:19:07;;;;;;;9.93;1.42;;;4.60;91.80;;;;;;5003824;28;20457;-85
2024/01/14 01:21:32;;;;;;;11.48;1.85;;;4.60;91.80;;;;;;5002317;28;20034;-85
2024/01/14 01:23:58;;;;;;;7.47;1.23;;;4.60;91.70;;;;;;5005027;28;20044;-85
2024/01/14 01:26:24;;;;;;;11.95;1.70;;;4.60;91.70;;;;;;5017021;28;20041;-85
2024/01/14 01:28:50;;;;;;;7.97;1.55;;;4.60;91.70;;;;;;5004421;28;20381;-85
2024/01/14 01:31:16;;;;;;;12.02;1.90;;;4.60;91.60;;;;;;5019063;28;20540;-85
2024/01/14 01:33:41;;;;;;;11.07;1.23;;;4.60;91.60;;;;;;5003074;28;20129;-85
2024/01/14 01:36:07;;;;;;;15.20;1.48;;;4.60;91.60;;;;;;5020804;28;20175;-85
2024/01/14 01:38:33;;;;;;;6.80;1.20;;;4.60;91.60;;;;;;5018234;28;20042;-84
2024/01/14 01:40:58;;;;;;;7.53;1.65;;;4.60;91.50;;;;;;5021250;28;20052;-84
2024/01/14 01:43:24;;;;;;;8.82;1.30;;;4.60;91.50;;;;;;5002072;28;20475;-85
2024/01/14 01:45:52;;;;;;;13.60;1.50;;;4.70;91.50;;;;;;5020376;28;20093;-85
2024/01/14 01:48:19;;;;;;;7.57;2.00;;;4.70;91.40;;;;;;5020067;28;20038;-84
2024/01/14 01:50:45;;;;;;;8.90;1.45;;;4.70;91.40;;;;;;5004169;28;20065;-84
2024/01/14 01:53:11;;;;;;;11.13;1.30;;;4.70;91.30;;;;;;5005103;28;20078;-84
2024/01/14 01:55:37;;;;;;;9.77;1.38;;;4.70;91.30;;;;;;5018378;28;20050;-84
2024/01/14 01:58:02;;;;;;;15.15;1.58;;;4.60;91.30;;;;;;5005720;28;20115;-84
2024/01/14 02:00:29;;;;;;;11.68;1.83;;;4.60;91.20;;;;;;5017780;28;20038;-85
2024/01/14 02:02:55;;;;;;;12.38;2.25;;;4.60;91.20;;;;;;5004633;28;20109;-85
2024/01/14 02:05:21;;;;;;;13.45;1.67;;;4.60;91.20;;;;;;5019600;28;20030;-85
2024/01/14 02:07:47;;;;;;;8.07;1.55;;;4.50;91.20;;;;;;5019413;28;20060;-85
2024/01/14 02:10:13;;;;;;;12.38;1.92;;;4.60;91.20;;;;;;5024191;28;20504;-85
2024/01/14 02:12:38;;;;;;;11.07;1.58;;;4.50;91.30;;;;;;5021023;28;20041;-85
2024/01/14 02:15:05;;;;;;;9.35;2.75;;;4.50;91.30;;;;;;5002234;28;20362;-85
2024/01/14 02:17:30;;;;;;;12.55;1.98;;;4.50;91.40;;;;;;5022023;28;20052;-85
2024/01/14 02:19:56;;;;;;;11.68;1.45;;;4.50;91.40;;;;;;5007051;28;20041;-85
2024/01/14 02:22:29;;;;;;;12.18;1.63;;;4.50;91.40;;;;;;5007376;28;20030;-85
2024/01/14 02:24:55;;;;;;;10.88;1.90;;;4.60;91.50;;;;;;5021671;28;20469;-85
2024/01/14 02:27:22;;;;;;;12.07;1.90;;;4.50;91.40;;;;;;5006490;28;20045;-85
2024/01/14 02:29:48;;;;;;;12.75;2.00;;;4.60;91.50;;;;;;5005283;28;20034;-85
2024/01/14 02:32:14;;;;;;;15.38;1.85;;;4.60;91.50;;;;;;5006886;28;20033;-85
2024/01/14 02:34:39;;;;;;;17.92;2.53;;;4.60;91.50;;;;;;5021997;28;20029;-84
2024/01/14 02:37:05;;;;;;;9.90;1.40;;;4.60;91.50;;;;;;5019707;28;20485;-85
2024/01/14 02:39:31;;;;;;;10.73;1.45;;;4.60;91.50;;;;;;5008355;28;20029;-85
2024/01/14 02:41:56;;;;;;;8.63;1.70;;;4.60;91.50;;;;;;5016318;28;20084;-85
2024/01/14 02:44:22;;;;;;;9.40;1.42;;;4.60;91.50;;;;;;5004701;28;20038;-85
2024/01/14 02:46:47;;;;;;;8.65;1.20;;;4.60;91.50;;;;;;5023127;28;20528;-85
2024/01/14 02:49:13;;;;;;;13.18;1.90;;;4.50;91.40;;;;;;5009016;28;20116;-85
2024/01/14 02:51:39;;;;;;;9.45;1.42;;;4.50;91.40;;;;;;5005362;28;20083;-84
2024/01/14 02:54:04;;;;;;;7.35;1.25;;;4.50;91.40;;;;;;5022776;28;20045;-84
2024/01/14 02:56:30;;;;;;;15.25;2.63;;;4.90;91.60;;;;;;5022847;28;20038;-84
2024/01/14 02:58:56;;;;;;;7.40;1.23;;;4.50;91.50;;;;;;5021146;28;20068;-84
2024/01/14 03:01:21;;;;;;;8.93;1.52;;;4.50;91.50;;;;;;5011943;28;20052;-84
2024/01/14 03:03:47;;;;;;;8.77;1.55;;;4.50;91.50;;;;;;5020338;28;20054;-85
2024/01/14 03:06:13;;;;;;;11.60;2.08;;;4.50;91.50;;;;;;5006639;28;20037;-85
2024/01/14 03:08:39;;;;;;;10.77;1.55;;;4.50;91.50;;;;;;5020742;28;20034;-85
2024/01/14 03:11:04;;;;;;;7.97;1.48;;;4.50;91.60;;;;;;5004173;28;20524;-85
2024/01/14 03:13:30;;;;;;;9.20;1.75;;;4.50;91.60;;;;;;5023411;28;20041;-85
2024/01/14 03:15:56;;;;;;;11.40;1.50;;;4.50;91.60;;;;;;5021620;28;20361;-84
2024/01/14 03:18:21;;;;;;;9.50;1.60;;;4.50;91.60;;;;;;5024559;28;20076;-85
2024/01/14 03:20:47;;;;;;;10.23;1.38;;;4.50;91.80;;;;;;5004492;28;20133;-85
2024/01/14 03:23:13;;;;;;;10.77;1.70;;;5.00;91.70;;;;;;5023020;28;20085;-85
2024/01/14 03:25:38;;;;;;;7.75;2.17;;;4.50;91.60;;;;;;5013439;28;20037;-84
2024/01/14 03:28:04;;;;;;;8.98;1.48;;;4.90;91.70;;;;;;5026971;28;20045;-84
2024/01/14 03:30:30;;;;;;;5.38;0.82;;;4.50;91.60;;;;;;5013159;28;20038;-84
2024/01/14 03:32:55;;;;;;;6.22;0.82;;;4.50;91.50;;;;;;5029362;28;20045;-84
2024/01/14 03:35:21;;;;;;;6.47;1.10;;;4.50;91.40;;;;;;5014959;28;20091;-84
2024/01/14 03:37:47;;;;;;;5.43;1.23;;;4.50;91.40;;;;;;5037751;28;20460;-84
2024/01/14 03:40:12;;;;;;;6.38;1.20;;;4.40;91.40;;;;;;5022762;28;20056;-84
2024/01/14 03:42:38;;;;;;;5.47;0.88;;;4.40;91.30;;;;;;5008860;28;20045;-84
2024/01/14 03:45:04;;;;;;;5.93;0.90;;;4.40;91.30;;;;;;5022845;28;20556;-84
2024/01/14 03:47:30;;;;;;;6.55;1.27;;;4.40;91.40;;;;;;5023105;28;20069;-84
2024/01/14 03:49:56;;;;;;;5.22;1.33;;;4.40;91.40;;;;;;5019922;28;20110;-84
2024/01/14 03:52:22;;;;;;;8.95;1.20;;;4.40;91.40;;;;;;5020976;28;20029;-84
2024/01/14 03:54:47;;;;;;;5.78;1.08;;;4.40;91.40;;;;;;5018737;28;20386;-84
2024/01/14 03:57:13;;;;;;;3.42;0.70;;;4.40;91.40;;;;;;5003917;28;20374;-84
2024/01/14 03:59:38;;;;;;;5.25;1.02;;;4.40;91.40;;;;;;5006090;28;20038;-84
2024/01/14 04:02:04;;;;;;;9.45;0.90;;;4.40;91.40;;;;;;5017303;28;20401;-84
2024/01/14 04:04:30;;;;;;;4.10;0.85;;;4.40;91.40;;;;;;5022957;28;20073;-84
2024/01/14 04:06:55;;;;;;;7.57;1.38;;;4.40;91.40;;;;;;5002838;28;20034;-84
2024/01/14 04:09:21;;;;;;;4.80;0.70;;;4.30;91.40;;;;;;5020363;28;20034;-84
2024/01/14 04:11:47;;;;;;;5.25;1.08;;;4.40;91.50;;;;;;5004265;28;20088;-84
2024/01/14 04:14:12;;;;;;;4.57;0.93;;;4.40;91.50;;;;;;5020512;28;20038;-84
2024/01/14 04:16:41;;;;;;;7.95;1.65;;;4.40;91.40;;;;;;5022269;28;20030;-84
2024/01/14 04:19:07;;;;;;;7.45;1.70;;;4.30;91.40;;;;;;5017864;28;20034;-84
2024/01/14 04:21:34;;;;;;;7.65;1.00;;;4.40;91.40;;;;;;5022589;28;20102;-84
2024/01/14 04:24:01;;;;;;;4.82;0.70;;;4.30;91.40;;;;;;5002267;28;20038;-84
2024/01/14 04:26:27;;;;;;;4.40;0.82;;;4.40;91.50;;;;;;5018809;28;20420;-84
2024/01/14 04:28:53;;;;;;;4.68;0.68;;;4.30;91.40;;;;;;5021947;28;20036;-84
2024/01/14 04:31:19;;;;;;;4.68;0.82;;;4.40;91.50;;;;;;5003125;28;20495;-84
2024/01/14 04:33:45;;;;;;;8.38;1.00;;;4.40;91.50;;;;;;5004801;28;20573;-84
2024/01/14 04:36:11;;;;;;;4.03;0.88;;;4.40;91.60;;;;;;5018910;28;20045;-84
2024/01/14 04:38:37;;;;;;;7.05;1.10;;;4.50;91.60;;;;;;5002073;28;20034;-84
2024/01/14 04:41:03;;;;;;;4.30;0.80;;;4.40;91.60;;;;;;5022960;28;20497;-84
2024/01/14 04:43:29;;;;;;;5.72;1.23;;;4.40;91.60;;;;;;5005239;28;20124;-84
2024/01/14 04:45:55;;;;;;;7.38;1.10;;;4.30;91.60;;;;;;5016353;28;20050;-84
2024/01/14 04:48:20;;;;;;;8.10;1.60;;;4.30;91.60;;;;;;5006441;28;20064;-84
2024/01/14 04:50:46;;;;;;;8.15;1.38;;;4.40;91.70;;;;;;5006435;28;20038;-84
2024/01/14 04:53:12;;;;;;;4.90;0.75;;;4.40;91.80;;;;;;5002801;28;20038;-84
2024/01/14 04:55:37;;;;;;;8.52;0.93;;;4.40;91.80;;;;;;5006471;28;20542;-84
2024/01/14 04:58:04;;;;;;;6.63;1.17;;;4.40;91.80;;;;;;5021243;28;20040;-84
2024/01/14 05:00:29;;;;;;;5.43;0.60;;;4.40;91.90;;;;;;5034523;28;20542;-84
2024/01/14 05:02:55;;;;;;;5.07;0.82;;;4.40;91.90;;;;;;5019275;28;20121;-84
2024/01/14 05:05:21;;;;;;;8.63;1.42;;;4.40;91.90;;;;;;5025858;28;20037;-84
2024/01/14 05:07:46;;;;;;;2.50;0.60;;;4.40;91.90;;;;;;5005757;28;20092;-84
2024/01/14 05:10:12;;;;;;;3.25;0.82;;;4.40;91.90;;;;;;5015159;28;20034;-84
2024/01/14 05:12:38;;;;;;;8.63;0.82;;;4.40;91.90;;;;;;5037901;28;20038;-83
2024/01/14 05:15:04;;;;;;;5.18;0.93;;;4.40;91.80;;;;;;5003157;28;20038;-84
2024/01/14 05:17:29;;;;;;;3.50;0.95;;;4.40;91.80;;;;;;5018155;28;20048;-84
2024/01/14 05:19:55;;;;;;;6.00;0.75;;;4.40;91.90;;;;;;5022458;28;20033;-84
2024/01/14 05:22:20;;;;;;;3.67;0.60;;;4.40;91.90;;;;;;5019570;28;20045;-84
2024/01/14 05:24:46;;;;;;;5.50;1.45;;;4.40;91.90;;;;;;5002742;28;20038;-84
2024/01/14 05:27:13;;;;;;;4.90;0.90;;;4.40;91.90;;;;;;5006654;28;20034;-84
2024/01/14 05:29:40;;;;;;;4.13;0.88;;;4.40;91.90;;;;;;5004864;28;20038;-84
2024/01/14 05:32:13;;;;;;;5.80;1.08;;;4.40;91.90;;;;;;5001113;28;20038;-84
2024/01/14 05:34:39;;;;;;;5.75;1.10;;;4.40;91.90;;;;;;5019141;28;20041;-84
2024/01/14 05:37:05;;;;;;;8.45;1.20;;;4.40;91.90;;;;;;5003588;28;20038;-84
2024/01/14 05:39:32;;;;;;;4.55;1.00;;;4.40;91.90;;;;;;5003352;28;20044;-84
2024/01/14 05:41:58;;;;;;;9.35;1.23;;;4.40;91.90;;;;;;5019234;28;20153;-84
2024/01/14 05:44:24;;;;;;;8.13;1.17;;;4.40;91.90;;;;;;5008881;28;20071;-84
2024/01/14 05:46:50;;;;;;;6.55;0.90;;;4.40;91.90;;;;;;5006074;28;20436;-84
2024/01/14 05:49:15;;;;;;;4.82;0.90;;;4.40;91.90;;;;;;5025088;28;20053;-84
2024/01/14 05:51:41;;;;;;;6.72;0.90;;;4.40;91.90;;;;;;5023181;28;20029;-84
2024/01/14 05:54:07;;;;;;;6.50;0.90;;;4.40;91.90;;;;;;5023981;28;20071;-84
2024/01/14 05:56:32;;;;;;;6.40;0.95;;;4.40;91.90;;;;;;5014094;28;20065;-84
2024/01/14 05:59:00;;;;;;;6.15;1.10;;;4.40;91.90;;;;;;5013833;28;20033;-84
2024/01/14 06:01:27;;;;;;;9.57;1.52;;;4.40;91.90;;;;;;5005806;28;20053;-84
2024/01/14 06:03:52;;;;;;;7.18;0.80;;;4.40;91.90;;;;;;5021328;28;20036;-84
2024/01/14 06:06:18;;;;;;;6.05;1.10;;;4.40;91.80;;;;;;5024104;28;20037;-84
2024/01/14 06:08:44;;;;;;;8.18;0.90;;;4.40;91.90;;;;;;5002292;28;20061;-84
2024/01/14 06:11:10;;;;;;;10.52;1.48;;;4.40;91.80;;;;;;5006494;28;20030;-84
2024/01/14 06:13:36;;;;;;;5.88;0.98;;;4.40;91.80;;;;;;5023987;28;20041;-84
2024/01/14 06:16:01;;;;;;;4.22;0.82;;;4.30;91.90;;;;;;5005734;28;20042;-84
2024/01/14 06:18:28;;;;;;;7.85;1.05;;;4.40;91.80;;;;;;5008457;28;20068;-84
2024/01/14 06:20:55;;;;;;;6.18;0.88;;;4.40;91.90;;;;;;5002546;28;20083;-84
2024/01/14 06:23:21;;;;;;;4.60;0.93;;;4.40;91.80;;;;;;5007739;28;20140;-84
2024/01/14 06:25:47;;;;;;;3.25;0.65;;;4.40;91.80;;;;;;5022434;28;20037;-84
2024/01/14 06:28:13;;;;;;;10.45;1.55;;;4.40;91.80;;;;;;5022745;28;20076;-84
2024/01/14 06:30:38;;;;;;;4.72;1.17;;;4.40;91.90;;;;;;5006065;28;20069;-84
2024/01/14 06:33:04;;;;;;;6.30;1.35;;;4.40;91.90;;;;;;5021476;28;20053;-84
2024/01/14 06:35:30;;;;;;;7.40;1.17;;;4.40;91.90;;;;;;5009397;28;20037;-84
2024/01/14 06:37:55;;;;;;;7.30;1.38;;;4.40;91.90;;;;;;5021297;28;20034;-84
2024/01/14 06:40:21;;;;;;;7.13;1.27;;;4.40;91.90;;;;;;5024528;28;20041;-84
2024/01/14 06:42:47;;;;;;;8.30;1.35;;;4.40;91.90;;;;;;5022680;28;20064;-84
2024/01/14 06:45:13;;;;;;;4.45;0.85;;;4.40;91.90;;;;;;5005691;28;20049;-84
2024/01/14 06:47:40;;;;;;;3.72;0.80;;;4.40;91.90;;;;;;5007647;28;20124;-84
2024/01/14 06:50:06;;;;;;;5.60;1.02;;;4.40;91.90;;;;;;5004524;28;20452;-84
2024/01/14 06:52:32;;;;;;;7.82;0.95;;;4.40;92.10;;;;;;4997436;28;20076;-84
2024/01/14 06:54:57;;;;;;;6.80;1.00;;;4.40;92.00;;;;;;5018458;28;20057;-84
2024/01/14 06:57:23;;;;;;;6.05;0.70;;;4.40;92.00;;;;;;5006456;28;20046;-84
2024/01/14 06:59:49;;;;;;;4.55;0.88;;;4.40;92.00;;;;;;5022574;28;20436;-84
2024/01/14 07:02:15;;;;;;;6.20;0.80;;;4.40;92.00;;;;;;5005060;28;20038;-84
2024/01/14 07:04:40;;;;;;;5.05;0.77;;;4.40;92.00;;;;;;5029166;28;20064;-84
2024/01/14 07:07:07;;;;;;;4.72;0.60;;;4.50;92.20;;;;;;5009124;28;20026;-84
2024/01/14 07:09:34;;;;;;;6.60;1.10;;;4.50;92.10;;;;;;5025245;28;20109;-84
2024/01/14 07:12:01;;;;;;;6.63;1.00;;;4.50;92.10;;;;;;5029731;28;20594;-84
2024/01/14 07:14:26;;;;;;;4.95;1.40;;;4.50;92.10;;;;;;5008085;28;20402;-84
2024/01/14 07:16:52;;;;;;;4.50;0.82;;;4.50;92.10;;;;;;5005975;28;20051;-84
2024/01/14 07:19:17;;;;;;;5.63;0.60;;;4.50;92.10;;;;;;5022134;28;20042;-84
2024/01/14 07:21:43;;;;;;;9.27;0.80;;;4.50;92.10;;;;;;5024610;28;20042;-84
2024/01/14 07:24:09;;;;;;;6.03;0.70;;;4.50;92.10;;;;;;5021856;28;20046;-84
2024/01/14 07:26:35;;;;;;;5.57;0.68;;;4.50;92.10;;;;;;5023875;28;20026;-85
2024/01/14 07:29:01;;;;;;;3.53;0.80;;;4.50;92.10;;;;;;5000167;28;20042;-85
2024/01/14 07:31:30;;;;;;;4.25;1.00;;;4.50;92.10;;;;;;5005208;28;20505;-85
2024/01/14 07:33:56;;;;;;;5.63;0.68;;;4.50;92.10;;;;;;5021835;28;20064;-85
2024/01/14 07:36:23;;;;;;;3.40;1.02;;;4.50;92.10;;;;;;5018713;28;20054;-84
2024/01/14 07:38:51;;;;;;;4.70;0.85;;;4.50;92.10;;;;;;5006757;28;20043;-84
2024/01/14 07:41:17;;;;;;;6.95;0.82;;;4.50;92.30;;;;;;5004550;28;20072;-84
2024/01/14 07:43:43;;;;;;;5.72;0.70;;;4.50;92.10;;;;;;5023693;28;20065;-84
2024/01/14 07:46:09;;;;;;;4.93;0.82;;;5.10;92.30;;;;;;5004098;28;20070;-84
2024/01/14 07:48:35;;;;;;;3.20;0.65;;;4.50;92.10;;;;;;5006242;28;20073;-85
2024/01/14 07:51:02;;;;;;;6.72;0.70;;;4.50;92.10;;;;;;5022014;28;20385;-85
2024/01/14 07:53:28;;;;;;;6.60;1.55;;;4.50;92.10;;;;;;5003002;28;20076;-85
2024/01/14 07:55:54;;;;;;;5.05;0.60;;;4.50;92.10;;;;;;5023461;28;20030;-85
2024/01/14 07:58:20;;;;;;;5.55;0.80;;;4.50;92.10;;;;;;5022484;28;20045;-85
2024/01/14 08:00:46;;;;;;;3.00;0.60;;;4.50;92.10;;;;;;5020266;28;20034;-85
2024/01/14 08:03:12;;;;;;;5.22;0.77;;;4.50;92.10;;;;;;5005244;28;20080;-85
2024/01/14 08:05:38;;;;;;;3.85;0.60;;;5.10;92.30;;;;;;5005666;28;20128;-85
2024/01/14 08:08:05;;;;;;;3.55;0.75;;;4.50;92.10;;;;;;5021065;28;20404;-85
2024/01/14 08:10:31;;;;;;;6.78;0.73;;;4.50;92.10;;;;;;5020967;28;20037;-85
2024/01/14 08:12:57;;;;;;;4.30;0.70;;;4.50;92.10;;;;;;5023378;28;20041;-85
2024/01/14 08:15:22;;;;;;;4.53;0.70;;;4.50;92.10;;;;;;5004681;28;20106;-85
2024/01/14 08:17:48;;;;;;;6.05;0.70;;;4.50;92.10;;;;;;5012377;28;20045;-85
2024/01/14 08:20:14;;;;;;;3.85;0.85;;;4.50;92.20;;;;;;5035595;28;20055;-85
2024/01/14 08:22:39;;;;;;;5.20;0.50;;;4.50;92.20;;;;;;5008613;28;20038;-85
2024/01/14 08:25:07;;;;;;;5.05;0.70;;;4.60;92.20;;;;;;5002435;28;20034;-85
2024/01/14 08:27:33;;;;;;;4.22;0.98;;;4.50;92.20;;;;;;5005056;28;20100;-85
2024/01/14 08:29:59;;;;;;;4.75;0.60;;;4.60;92.20;;;;;;5007050;28;20045;-85
2024/01/14 08:32:25;;;;;;;4.97;0.80;;;4.50;92.20;;;;;;5006424;28;20034;-85
2024/01/14 08:34:50;;;;;;;6.47;1.02;;;4.60;92.30;;;;;;5019641;28;20136;-85
2024/01/14 08:37:16;;;;;;;2.60;0.50;;;4.60;92.30;;;;;;5021902;28;20042;-85
2024/01/14 08:39:41;;;;;;;5.55;0.80;;;4.60;92.30;;;;;;5004269;28;20123;-85
2024/01/14 08:42:08;;;;;;;2.63;0.50;;;4.60;92.30;;;;;;5004006;28;20041;-85
2024/01/14 08:44:33;;;;;;;3.55;0.70;;;4.60;92.30;;;;;;5006059;28;20045;-84
2024/01/14 08:46:59;;;;;;;4.45;0.65;;;4.60;92.30;;;;;;5003138;28;20060;-84
2024/01/14 08:49:29;;;;;;;6.85;0.60;;;4.60;92.30;;;;;;4998923;28;20078;-85
2024/01/14 08:51:56;;;;;;;3.90;0.60;;;4.60;92.30;;;;;;5000120;28;20033;-84
2024/01/14 08:54:22;;;;;;;4.53;0.60;;;4.60;92.40;;;;;;5023477;28;20092;-84
2024/01/14 08:56:48;;;;;;;4.20;0.88;;;4.60;92.40;;;;;;5004245;28;20044;-84
2024/01/14 08:59:14;;;;;;;4.10;0.50;;;4.70;92.40;;;;;;5020396;28;20037;-84
2024/01/14 09:01:39;;;;;;;4.13;0.50;;;4.70;92.40;;;;;;5022673;28;20468;-84
2024/01/14 09:04:05;;;;;;;2.67;0.50;;;4.70;92.40;;;;;;5019136;28;20038;-84
2024/01/14 09:06:31;;;;;;;2.17;0.40;;;4.70;92.40;;;;;;5006184;28;20032;-84
2024/01/14 09:08:56;;;;;;;4.35;0.80;;;4.70;92.40;;;;;;5019468;28;20381;-84
2024/01/14 09:11:22;;;;;;;1.52;0.60;;;4.70;92.40;;;;;;5021285;28;20050;-84
2024/01/14 09:13:48;;;;;;;1.27;0.30;;;4.70;92.40;;;;;;5021414;28;20056;-84
2024/01/14 09:16:14;;;;;;;5.38;0.68;;;4.80;92.40;;;;;;5002845;28;20063;-84
2024/01/14 09:18:40;;;;;;;4.13;0.50;;;4.80;92.40;;;;;;5012288;28;20080;-85
2024/01/14 09:21:06;;;;;;;3.08;0.68;;;4.80;92.40;;;;;;5010043;28;20388;-85
2024/01/14 09:23:31;;;;;;;2.08;0.50;;;4.80;92.40;;;;;;5006533;28;20038;-85
2024/01/14 09:25:58;;;;;;;6.40;0.50;;;4.80;92.50;;;;;;5025734;28;20484;-85
2024/01/14 09:28:26;;;;;;;3.67;0.80;;;4.80;92.50;;;;;;5014287;28;20041;-85
2024/01/14 09:30:53;;;;;;;2.55;0.50;;;4.80;92.50;;;;;;5021712;28;20045;-85
2024/01/14 09:33:18;;;;;;;4.15;0.90;;;4.80;92.50;;;;;;5026346;28;20039;-85
2024/01/14 09:35:44;;;;;;;4.55;0.40;;;4.90;92.50;;;;;;5006739;28;20030;-85
2024/01/14 09:38:10;;;;;;;2.92;0.60;;;4.90;92.50;;;;;;5010240;28;20036;-85
2024/01/14 09:40:36;;;;;;;5.55;1.00;;;4.90;92.50;;;;;;5006262;28;20480;-85
2024/01/14 09:43:06;;;;;;;4.90;0.95;;;4.90;92.50;;;;;;5009527;28;20132;-85
2024/01/14 09:45:35;;;;;;;2.92;0.77;;;4.90;92.50;;;;;;5007092;28;20132;-85
2024/01/14 09:48:02;;;;;;;3.15;0.90;;;4.90;92.50;;;;;;5007986;28;20497;-85
2024/01/14 09:50:30;;;;;;;2.50;0.60;;;4.90;92.40;;;;;;5024856;28;20034;-85
2024/01/14 09:52:58;;;;;;;3.80;1.02;;;4.90;92.50;;;;;;4998590;28;20042;-85
2024/01/14 09:55:24;;;;;;;4.80;1.75;;;4.90;92.50;;;;;;5023397;28;20046;-85
2024/01/14 09:57:52;;;;;;;7.13;1.30;;;5.00;92.50;;;;;;5026221;28;20071;-85
2024/01/14 10:00:22;;;;;;;3.35;0.90;;;4.90;92.50;;;;;;5006039;28;20045;-85
2024/01/14 10:02:48;;;;;;;6.47;1.10;;;4.90;92.50;;;;;;5009746;28;20528;-85
2024/01/14 10:05:15;;;;;;;6.78;1.48;;;5.00;92.50;;;;;;5006968;28;20113;-85
2024/01/14 10:07:43;;;;;;;4.47;0.85;;;5.00;92.50;;;;;;5027378;28;20037;-85
2024/01/14 10:10:09;;;;;;;4.18;0.98;;;5.10;92.50;;;;;;5006878;28;20041;-85
2024/01/14 10:12:36;;;;;;;7.75;1.00;;;5.00;92.50;;;;;;5025624;28;20048;-85
2024/01/14 10:15:02;;;;;;;9.55;2.08;;;5.00;92.50;;;;;;5004326;28;20033;-85
2024/01/14 10:17:29;;;;;;;5.47;1.23;;;5.00;92.50;;;;;;5008413;28;20029;-85
2024/01/14 10:19:57;;;;;;;2.92;1.00;;;5.00;92.60;;;;;;5004983;28;20068;-85
2024/01/14 10:22:25;;;;;;;5.85;1.50;;;5.10;92.60;;;;;;5008175;28;20069;-85
2024/01/14 10:24:56;;;;;;;4.53;1.38;;;5.10;92.60;;;;;;5022002;28;20080;-85
2024/01/14 10:27:22;;;;;;;6.80;1.17;;;5.10;92.60;;;;;;5002272;28;20120;-85
2024/01/14 10:29:49;;;;;;;8.35;1.20;;;5.10;92.60;;;;;;5002157;28;20033;-85
2024/01/14 10:32:15;;;;;;;4.97;1.00;;;5.10;92.60;;;;;;5011851;28;20042;-85
2024/01/14 10:34:42;;;;;;;6.63;0.93;;;5.10;92.60;;;;;;5004671;28;20042;-85
2024/01/14 10:37:07;;;;;;;3.47;1.00;;;5.20;92.60;;;;;;5008501;28;20038;-85
2024/01/14 10:39:34;;;;;;;10.07;1.65;;;5.20;92.60;;;;;;5027612;28;20033;-85
2024/01/14 10:42:00;;;;;;;3.47;1.33;;;5.20;92.60;;;;;;5018021;28;20046;-85
2024/01/14 10:44:26;;;;;;;5.85;1.50;;;5.20;92.60;;;;;;5016594;28;20075;-85
2024/01/14 10:46:53;;;;;;;5.72;1.80;;;5.20;92.60;;;;;;5005224;28;20057;-85
2024/01/14 10:49:25;;;;;;;6.22;1.85;;;5.30;92.60;;;;;;5024257;28;20091;-85
2024/01/14 10:52:10;;;;;;;2.88;1.08;;;5.30;92.60;;;;;;5002130;28;20065;-85
2024/01/14 10:54:49;;;;;;;4.22;1.73;;;5.30;92.60;;;;;;5005373;28;20095;-85
2024/01/14 10:57:34;;;;;;;4.80;1.15;;;5.30;92.60;;;;;;5006973;28;20096;-85
2024/01/14 11:00:10;;;;;;;4.88;1.20;;;5.30;92.60;;;;;;5022966;28;20599;-85
2024/01/14 11:02:37;;;;;;;5.20;1.20;;;5.30;92.60;;;;;;5021417;28;20511;-85
2024/01/14 11:05:05;;;;;;;3.05;1.00;;;5.30;92.50;;;;;;5020151;28;20088;-85
2024/01/14 11:07:33;;;;;;;2.47;0.85;;;5.30;92.70;;;;;;5001906;28;20451;-85
2024/01/14 11:10:00;;;;;;;7.45;1.00;;;5.30;92.60;;;;;;5002759;28;20128;-85
2024/01/14 11:12:47;;;;;;;4.80;1.10;;;5.30;92.60;;;;;;5005127;28;20119;-85
2024/01/14 11:15:29;;;;;;;5.85;1.70;;;5.40;92.60;;;;;;5001035;28;20416;-85
2024/01/14 11:18:16;;;;;;;4.30;1.33;;;5.40;92.60;;;;;;5005074;28;20435;-85
2024/01/14 11:20:44;;;;;;;2.90;0.90;;;5.40;92.60;;;;;;5003217;28;20045;-85
2024/01/14 11:23:10;;;;;;;2.08;0.52;;;5.40;92.60;;;;;;5006881;28;20037;-85
2024/01/14 11:25:36;;;;;;;4.78;1.00;;;5.40;92.70;;;;;;5004022;28;20042;-85
2024/01/14 11:28:02;;;;;;;3.22;0.60;;;5.50;92.50;;;;;;5024031;28;20142;-85
2024/01/14 11:31:01;;;;;;;5.25;0.82;;;5.50;92.50;;;;;;5005270;28;20369;-85
2024/01/14 11:33:31;;;;;;;2.65;0.60;;;5.50;92.40;;;;;;5013797;28;20187;-85
2024/01/14 11:35:57;;;;;;;3.95;1.10;;;5.50;92.40;;;;;;5004792;28;20129;-85
2024/01/14 11:38:54;;;;;;;4.47;1.55;;;5.50;92.40;;;;;;5019513;28;20042;-85
2024/01/14 11:41:30;;;;;;;9.30;3.30;;;5.50;92.50;;;;;;5023593;28;20061;-85
2024/01/14 11:44:02;;;;;;;5.82;2.58;;;5.50;92.70;;;;;;5007523;28;20040;-85
2024/01/14 11:46:47;;;;;;;7.13;2.83;;;5.50;92.50;;;;;;5006035;28;20050;-85
2024/01/14 11:49:23;;;;;;;8.15;3.63;;;5.50;92.50;;;;;;4994088;28;20074;-85
2024/01/14 11:51:57;;;;;;;6.80;3.63;;;5.50;92.50;;;;;;5022127;28;20048;-85
2024/01/14 11:54:23;;;;;;;8.32;3.85;;;5.50;92.50;;;;;;5021936;28;20042;-85
2024/01/14 11:56:49;;;;;;;8.55;4.72;;;5.60;92.50;;;;;;5005579;28;20040;-85
2024/01/14 11:59:16;;;;;;;10.70;5.35;;;5.60;92.50;;;;;;5019775;28;20041;-85
2024/01/14 12:01:42;;;;;;;12.68;5.80;;;5.60;92.50;;;;;;5020432;28;20046;-85
2024/01/14 12:04:10;;;;;;;10.82;5.68;;;5.60;92.50;;;;;;5004578;28;20044;-85
2024/01/14 12:06:43;;;;;;;11.60;6.75;;;5.60;92.50;;;;;;5007855;28;20029;-85
2024/01/14 12:09:11;;;;;;;12.88;6.45;;;5.60;92.50;;;;;;5007669;28;20131;-85
2024/01/14 12:11:38;;;;;;;18.95;7.25;;;5.60;92.50;;;;;;5007212;28;20147;-85
2024/01/14 12:14:04;;;;;;;16.35;7.75;;;5.70;92.50;;;;;;5022026;28;20037;-85
2024/01/14 12:16:30;;;;;;;13.98;7.15;;;5.70;92.50;;;;;;5004616;28;20045;-85
2024/01/14 12:18:56;;;;;;;15.65;7.68;;;5.70;92.50;;;;;;5017327;28;20045;-85
2024/01/14 12:21:22;;;;;;;12.65;6.78;;;5.80;92.50;;;;;;5020122;28;20493;-85
2024/01/14 12:23:49;;;;;;;13.60;7.55;;;5.70;92.40;;;;;;5000480;28;20042;-86
2024/01/14 12:26:15;;;;;;;15.23;8.98;;;5.70;92.40;;;;;;5023060;28;20037;-86
2024/01/14 12:28:41;;;;;;;14.13;8.07;;;5.70;92.40;;;;;;5000831;28;20489;-86
2024/01/14 12:31:07;;;;;;;12.48;7.10;;;5.70;92.40;;;;;;5005390;28;20041;-86
2024/01/14 12:33:35;;;;;;;12.02;6.95;;;5.70;92.30;;;;;;5004130;28;20079;-86
2024/01/14 12:36:01;;;;;;;13.70;7.28;;;5.70;92.30;;;;;;5004676;28;20041;-86
2024/01/14 12:38:27;;;;;;;14.38;6.57;;;5.70;92.30;;;;;;5005752;28;20045;-86
2024/01/14 12:40:53;;;;;;;12.18;6.18;;;5.70;92.20;;;;;;5019260;28;20034;-86
2024/01/14 12:43:19;;;;;;;12.88;6.55;;;5.70;92.20;;;;;;5006296;28;20064;-86
2024/01/14 12:45:49;;;;;;;12.65;6.15;;;5.70;92.20;;;;;;5003296;28;20042;-86
2024/01/14 12:48:23;;;;;;;11.13;5.93;;;5.70;92.20;;;;;;5004892;28;20045;-86
2024/01/14 12:50:55;;;;;;;12.35;6.13;;;5.80;92.20;;;;;;4999634;28;20171;-85
2024/01/14 12:53:22;;;;;;;10.65;5.53;;;5.70;92.20;;;;;;5019143;28;20461;-86